Погода Пуэрто-Паломасна 2 недели

Чиуауа, Мексика

20 июля-01 августа
  • 20июля
    Сегодня
    +22°
    +37°
    Практически безоблачно
    ВремяПогодаТемператураВлажностьДавлениеВетер, м/сВероятность осадков
    00:00Ясно и безоблачно+29°C28 %662 мм1.6 м/с2 %
    03:00Ясно и безоблачно+26°C34 %661 мм1.1 м/с2 %
    06:00Ясно и безоблачно+25°C36 %661 мм0.5 м/с2 %
    09:00Ясно и безоблачно+28°C31 %663 мм1.6 м/с2 %
    12:00Ясно и безоблачно+33°C22 %664 мм1.9 м/с2 %
    15:00Практически безоблачно+36°C19 %662 мм2.8 м/с2 %
    18:00Небольшая облачность, возможен дождь с грозой+36°C24 %662 мм4.7 м/с17 %
    21:00Облачно с прояснениями+28°C36 %662 мм0.5 м/с22 %
  • 21июля
    Воскресенье
    +20°
    +34°
    Практически безоблачно
    ВремяПогодаТемператураВлажностьДавлениеВетер, м/сВероятность осадков
    00:00Облачно с прояснениями+26°C40 %662 мм1.8 м/с16 %
    03:00Облачно с прояснениями+25°C54 %663 мм6.4 м/с29 %
    06:00Ясно и безоблачно+23°C60 %662 мм3.2 м/с4 %
    09:00Практически безоблачно+25°C48 %663 мм4.6 м/с3 %
    12:00Практически безоблачно+30°C32 %663 мм4.3 м/с2 %
    15:00Практически безоблачно+33°C26 %662 мм3.0 м/с9 %
    18:00Небольшая облачность+33°C27 %661 мм4.7 м/с22 %
    21:00Облачно с прояснениями+29°C39 %662 мм2.8 м/с30 %
  • 22июля
    Понедельник
    +21°
    +34°
    Ясно и безоблачно
    ВремяПогодаТемператураВлажностьДавлениеВетер, м/сВероятность осадков
    00:00Облачно с прояснениями+25°C44 %661 мм3.2 м/с25 %
    03:00Практически безоблачно+26°C51 %661 мм4.7 м/с22 %
    06:00Ясно и безоблачно+21°C74 %661 мм3.5 м/с14 %
    09:00Ясно и безоблачно+24°C62 %662 мм4.5 м/с5 %
    12:00Ясно и безоблачно+29°C43 %663 мм4.4 м/с11 %
    15:00Ясно и безоблачно+33°C33 %661 мм4.3 м/с13 %
    18:00Облачно с прояснениями+33°C31 %660 мм4.7 м/с16 %
    21:00Практически безоблачно+28°C37 %661 мм4.1 м/с20 %
  • 23июля
    Вторник
    +22°
    +35°
    Ясно и безоблачно
    ВремяПогодаТемператураВлажностьДавлениеВетер, м/сВероятность осадков
    00:00Ясно и безоблачно+26°C46 %661 мм4.4 м/с10 %
    03:00Ясно и безоблачно+24°C54 %661 мм3.9 м/с5 %
    06:00Ясно и безоблачно+22°C66 %661 мм2.8 м/с4 %
    09:00Ясно и безоблачно+25°C57 %664 мм4.8 м/с2 %
    12:00Ясно и безоблачно+30°C39 %664 мм3.2 м/с6 %
    15:00Ясно и безоблачно+34°C29 %663 мм2.5 м/с3 %
    18:00Небольшая облачность+34°C25 %662 мм5.0 м/с4 %
    21:00Практически безоблачно+30°C28 %663 мм4.8 м/с7 %
Мы используем cookies
Соглашаюсь